Time;durP1;ratioP1;P1;durP2;ratioP2;P2;SDS_P1;SDS_P2;PMS_P1;PMS_P2;Temp;Humidity;BMP_temperature;BMP_pressure;BME280_temperature;BME280_humidity;BME280_pressure;Samples;Min_cycle;Max_cycle;Signal;HPM_P1;HPM_P2
2021/07/19 00:00:46;;;;;;;1.50;0.90;;;19.30;98.20;;;;;;4996784;28;20485;-81
2021/07/19 00:03:14;;;;;;;1.50;0.90;;;19.30;98.20;;;;;;5018274;28;20465;-80
2021/07/19 00:05:41;;;;;;;1.57;0.97;;;19.30;98.20;;;;;;5010318;28;20479;-81
2021/07/19 00:08:08;;;;;;;1.50;1.00;;;19.30;98.20;;;;;;5010953;28;20477;-80
2021/07/19 00:10:35;;;;;;;1.50;0.90;;;19.20;98.20;;;;;;4994728;28;20468;-80
2021/07/19 00:13:02;;;;;;;1.53;1.00;;;19.20;98.20;;;;;;5010175;28;20487;-79
2021/07/19 00:15:29;;;;;;;1.53;1.00;;;19.20;98.20;;;;;;4992545;28;20506;-80
2021/07/19 00:17:56;;;;;;;1.50;0.93;;;19.10;98.20;;;;;;4986011;28;20491;-81
2021/07/19 00:20:25;;;;;;;1.50;1.00;;;19.10;98.20;;;;;;4996406;28;20512;-80
2021/07/19 00:22:52;;;;;;;1.50;0.90;;;19.10;98.20;;;;;;5002309;28;20526;-80
2021/07/19 00:25:20;;;;;;;1.53;0.90;;;19.10;98.20;;;;;;5003363;28;20488;-79
2021/07/19 00:27:48;;;;;;;1.50;0.90;;;19.00;98.20;;;;;;4997865;28;20480;-81
2021/07/19 00:30:16;;;;;;;1.57;1.00;;;19.00;98.20;;;;;;4998206;28;20461;-81
2021/07/19 00:32:44;;;;;;;1.50;1.00;;;19.00;98.20;;;;;;5001782;28;20502;-80
2021/07/19 00:35:11;;;;;;;1.57;1.00;;;19.00;98.20;;;;;;5012196;28;20464;-79
2021/07/19 00:37:40;;;;;;;1.53;1.00;;;18.90;98.20;;;;;;5003735;28;20859;-80
2021/07/19 00:40:10;;;;;;;1.50;0.90;;;18.90;98.20;;;;;;5006166;28;20468;-80
2021/07/19 00:42:40;;;;;;;1.57;1.00;;;18.90;98.20;;;;;;5002076;28;20491;-81
2021/07/19 00:45:10;;;;;;;1.50;0.90;;;18.90;98.20;;;;;;5009676;28;20469;-80
2021/07/19 00:47:36;;;;;;;1.50;0.93;;;18.80;98.20;;;;;;4990003;28;20532;-79
2021/07/19 00:50:04;;;;;;;1.50;1.00;;;18.80;98.20;;;;;;5006822;28;20461;-80
2021/07/19 00:52:31;;;;;;;1.50;0.90;;;18.80;98.20;;;;;;5008105;28;20994;-78
2021/07/19 00:55:00;;;;;;;1.50;0.90;;;18.80;98.20;;;;;;5010214;28;20470;-79
2021/07/19 00:57:27;;;;;;;1.53;0.90;;;18.80;98.20;;;;;;5006973;28;20492;-81
2021/07/19 00:59:55;;;;;;;1.50;1.00;;;18.70;98.20;;;;;;5009588;28;20468;-80
2021/07/19 01:02:22;;;;;;;1.50;0.90;;;18.70;98.20;;;;;;5006747;28;20479;-81
2021/07/19 01:04:50;;;;;;;1.50;0.90;;;18.70;98.20;;;;;;5009406;28;20488;-80
2021/07/19 01:07:18;;;;;;;1.50;0.90;;;18.70;98.20;;;;;;4998992;28;21201;-80
2021/07/19 01:09:45;;;;;;;1.50;0.90;;;18.70;98.20;;;;;;5001496;28;20478;-81
2021/07/19 01:12:13;;;;;;;1.50;0.90;;;18.70;98.20;;;;;;4994667;28;20882;-81
2021/07/19 01:14:40;;;;;;;1.50;1.00;;;18.70;98.20;;;;;;5004566;28;20480;-80
2021/07/19 01:17:07;;;;;;;1.50;0.90;;;18.60;98.20;;;;;;4993942;28;20491;-78
2021/07/19 01:19:37;;;;;;;1.50;0.93;;;18.60;98.20;;;;;;5002816;28;20472;-81
2021/07/19 01:22:29;;;;;;;1.53;1.00;;;18.50;98.20;;;;;;5003250;28;20571;-79
2021/07/19 01:25:09;;;;;;;1.53;0.90;;;18.50;98.20;;;;;;4999197;28;20469;-79
2021/07/19 01:28:06;;;;;;;1.50;0.90;;;18.50;98.20;;;;;;4983543;28;20484;-81
2021/07/19 01:30:39;;;;;;;1.57;1.00;;;18.40;98.20;;;;;;4998527;28;21198;-81
2021/07/19 01:33:07;;;;;;;1.53;0.90;;;18.40;98.20;;;;;;5000118;28;20468;-81
2021/07/19 01:35:38;;;;;;;1.50;0.90;;;18.40;98.20;;;;;;5006253;28;20487;-81
2021/07/19 01:38:06;;;;;;;1.53;1.00;;;18.40;98.20;;;;;;5003919;28;21297;-78
2021/07/19 01:40:34;;;;;;;1.50;0.90;;;18.30;98.20;;;;;;4988218;28;20465;-77
2021/07/19 01:43:01;;;;;;;1.50;0.93;;;18.30;98.20;;;;;;4994528;28;20481;-81
2021/07/19 01:45:29;;;;;;;1.50;1.00;;;18.30;98.20;;;;;;5006454;28;20488;-80
2021/07/19 01:47:58;;;;;;;1.50;0.90;;;18.30;98.20;;;;;;5006735;28;20487;-80
2021/07/19 01:50:26;;;;;;;1.50;0.90;;;18.20;98.20;;;;;;5006188;28;20465;-80
2021/07/19 01:52:53;;;;;;;1.57;1.00;;;18.20;98.20;;;;;;5007861;28;20487;-81
2021/07/19 01:55:20;;;;;;;1.53;0.90;;;18.20;98.20;;;;;;5002825;28;20500;-82
2021/07/19 01:57:47;;;;;;;1.50;1.00;;;18.20;98.20;;;;;;5008566;28;20518;-80
2021/07/19 02:00:15;;;;;;;1.57;1.00;;;18.20;98.20;;;;;;5004952;28;20474;-81
2021/07/19 02:02:42;;;;;;;1.50;0.90;;;18.10;98.20;;;;;;5006447;28;21034;-81
2021/07/19 02:05:13;;;;;;;1.50;0.93;;;18.10;98.20;;;;;;5009985;28;21110;-81
2021/07/19 02:07:42;;;;;;;1.50;0.90;;;18.10;98.20;;;;;;5007310;28;20487;-80
2021/07/19 02:10:11;;;;;;;1.53;1.00;;;18.10;98.20;;;;;;5000716;28;20469;-80
2021/07/19 02:12:39;;;;;;;1.93;1.73;;;18.00;98.20;;;;;;5011375;28;20485;-80
2021/07/19 02:15:12;;;;;;;1.53;0.90;;;18.00;98.20;;;;;;5008518;28;20479;-81
2021/07/19 02:17:40;;;;;;;1.53;1.00;;;18.00;98.20;;;;;;5007344;28;20510;-80
2021/07/19 02:20:09;;;;;;;1.53;0.90;;;17.90;98.20;;;;;;5002390;28;20475;-79
2021/07/19 02:22:41;;;;;;;1.50;0.90;;;17.90;98.20;;;;;;4993269;28;20480;-81
2021/07/19 02:25:10;;;;;;;1.57;1.00;;;17.90;98.20;;;;;;4999204;28;20458;-81
2021/07/19 02:27:39;;;;;;;1.53;0.90;;;17.90;98.20;;;;;;5009376;28;20478;-80
2021/07/19 02:30:08;;;;;;;1.53;0.90;;;17.80;98.20;;;;;;4991750;28;20980;-82
2021/07/19 02:32:36;;;;;;;1.50;1.00;;;17.80;98.20;;;;;;5003742;28;20487;-81
2021/07/19 02:35:04;;;;;;;1.50;1.00;;;17.80;98.20;;;;;;5008053;28;20472;-79
2021/07/19 02:37:32;;;;;;;1.50;1.00;;;17.80;98.20;;;;;;5007698;28;20479;-82
2021/07/19 02:40:00;;;;;;;1.50;0.90;;;17.70;98.20;;;;;;5002711;28;20552;-80
2021/07/19 02:42:28;;;;;;;1.50;0.90;;;17.70;98.20;;;;;;4994521;28;20479;-81
2021/07/19 02:44:55;;;;;;;1.60;1.00;;;17.70;98.20;;;;;;5001381;28;20922;-80
2021/07/19 02:47:25;;;;;;;1.53;1.00;;;17.70;98.20;;;;;;4999140;28;20483;-80
2021/07/19 02:49:52;;;;;;;1.53;1.00;;;17.60;98.20;;;;;;5002401;28;20492;-79
2021/07/19 02:52:22;;;;;;;1.60;1.00;;;17.60;98.20;;;;;;4992933;28;20487;-81
2021/07/19 02:54:49;;;;;;;1.53;0.90;;;17.60;98.20;;;;;;5008762;28;20456;-80
2021/07/19 02:57:18;;;;;;;1.57;1.00;;;17.50;98.20;;;;;;4994334;28;20546;-81
2021/07/19 02:59:45;;;;;;;1.50;0.90;;;17.50;98.20;;;;;;5011005;28;20460;-81
2021/07/19 03:02:12;;;;;;;1.50;1.00;;;17.50;98.20;;;;;;4995931;28;20476;-81
2021/07/19 03:04:41;;;;;;;1.53;0.90;;;17.50;98.20;;;;;;5010128;28;20464;-82
2021/07/19 03:07:09;;;;;;;1.50;1.00;;;17.50;98.20;;;;;;4997132;28;20814;-80
2021/07/19 03:09:39;;;;;;;1.53;1.00;;;17.40;98.20;;;;;;5010803;28;20496;-80
2021/07/19 03:12:07;;;;;;;1.50;1.00;;;17.40;98.20;;;;;;4986944;28;20476;-80
2021/07/19 03:14:37;;;;;;;1.50;1.00;;;17.40;98.20;;;;;;4989160;28;20987;-79
2021/07/19 03:17:06;;;;;;;1.50;1.00;;;17.40;98.20;;;;;;4997084;28;20490;-80
2021/07/19 03:19:36;;;;;;;1.50;1.00;;;17.40;98.20;;;;;;4996989;28;20464;-80
2021/07/19 03:22:05;;;;;;;1.50;1.00;;;17.30;98.20;;;;;;5001597;28;20530;-80
2021/07/19 03:24:32;;;;;;;1.50;1.00;;;17.30;98.20;;;;;;5010985;28;20479;-80
2021/07/19 03:26:59;;;;;;;1.50;1.00;;;17.30;98.20;;;;;;4997528;28;20489;-80
2021/07/19 03:29:27;;;;;;;1.60;1.00;;;17.30;98.20;;;;;;5001192;28;20460;-81
2021/07/19 03:31:56;;;;;;;1.53;1.00;;;17.30;98.20;;;;;;4995978;28;20513;-81
2021/07/19 03:34:23;;;;;;;1.50;1.00;;;17.20;98.20;;;;;;5002961;28;20456;-79
2021/07/19 03:36:53;;;;;;;1.50;1.00;;;17.20;98.20;;;;;;4984686;28;20587;-82
2021/07/19 03:39:21;;;;;;;1.53;1.00;;;17.20;98.20;;;;;;5001202;28;20465;-81
2021/07/19 03:41:49;;;;;;;1.53;0.97;;;17.20;98.20;;;;;;4985070;28;20474;-81
2021/07/19 03:44:18;;;;;;;1.50;0.90;;;17.20;98.20;;;;;;5004759;28;20503;-79
2021/07/19 03:46:45;;;;;;;1.50;0.97;;;17.10;98.20;;;;;;4981514;28;20480;-80
2021/07/19 03:49:16;;;;;;;1.60;1.00;;;17.10;98.20;;;;;;4991021;28;20454;-80
2021/07/19 03:51:48;;;;;;;1.53;1.00;;;17.10;98.20;;;;;;4981094;28;20503;-80
2021/07/19 03:54:16;;;;;;;1.50;1.00;;;17.10;98.20;;;;;;5013600;28;20460;-79
2021/07/19 03:56:44;;;;;;;1.50;0.90;;;17.10;98.20;;;;;;5003748;28;20492;-80
2021/07/19 03:59:13;;;;;;;1.50;0.90;;;17.10;98.20;;;;;;5008156;28;20530;-81
2021/07/19 04:01:42;;;;;;;1.50;0.90;;;17.00;98.20;;;;;;4993658;28;20486;-80
2021/07/19 04:04:16;;;;;;;1.50;1.00;;;17.10;98.20;;;;;;5002934;28;20500;-79
2021/07/19 04:06:44;;;;;;;1.50;0.90;;;17.10;98.20;;;;;;4990913;28;20523;-80
2021/07/19 04:09:12;;;;;;;1.57;1.00;;;17.10;98.20;;;;;;5010439;28;20509;-80
2021/07/19 04:11:40;;;;;;;1.50;0.90;;;17.10;98.20;;;;;;4994969;28;20974;-79
2021/07/19 04:14:08;;;;;;;1.53;1.00;;;17.10;98.20;;;;;;5003008;28;20472;-78
2021/07/19 04:16:35;;;;;;;1.57;1.00;;;17.10;98.20;;;;;;4990968;28;20476;-78
2021/07/19 04:19:02;;;;;;;1.50;1.00;;;17.10;98.20;;;;;;5011445;28;20467;-78
2021/07/19 04:21:32;;;;;;;1.50;1.00;;;17.10;98.20;;;;;;4981993;28;20484;-78
2021/07/19 04:24:01;;;;;;;1.50;1.00;;;17.10;98.20;;;;;;5005186;28;20915;-78
2021/07/19 04:26:28;;;;;;;1.60;1.00;;;17.10;98.20;;;;;;4988068;28;21038;-78
2021/07/19 04:28:56;;;;;;;1.60;1.10;;;17.20;98.20;;;;;;5021634;28;20574;-78
2021/07/19 04:31:23;;;;;;;1.57;1.03;;;17.10;98.20;;;;;;4992084;28;21018;-78
2021/07/19 04:33:50;;;;;;;1.50;1.00;;;17.20;98.20;;;;;;5003316;28;20488;-78
2021/07/19 04:36:17;;;;;;;1.50;0.90;;;17.20;98.20;;;;;;4995426;28;21137;-78
2021/07/19 04:38:46;;;;;;;1.50;0.90;;;17.20;98.20;;;;;;5011357;28;20474;-78
2021/07/19 04:41:18;;;;;;;1.53;0.93;;;17.20;98.20;;;;;;4992740;28;20475;-78
2021/07/19 04:43:45;;;;;;;1.50;0.93;;;17.20;98.20;;;;;;5013769;28;20453;-78
2021/07/19 04:46:12;;;;;;;1.50;1.00;;;17.20;98.20;;;;;;4992708;28;21864;-79
2021/07/19 04:48:39;;;;;;;1.50;1.00;;;17.30;98.20;;;;;;5013493;28;20508;-78
2021/07/19 04:51:27;;;;;;;1.50;0.90;;;17.30;98.20;;;;;;4989648;28;20444;-78
2021/07/19 04:54:02;;;;;;;1.50;1.00;;;17.30;98.20;;;;;;5010674;28;20506;-79
2021/07/19 04:56:55;;;;;;;1.50;0.90;;;17.40;98.20;;;;;;4989244;28;20477;-78
2021/07/19 04:59:30;;;;;;;1.53;1.00;;;17.40;98.20;;;;;;5008461;28;20464;-79
2021/07/19 05:02:16;;;;;;;1.53;1.00;;;17.60;98.20;;;;;;4994134;28;20467;-80
2021/07/19 05:04:46;;;;;;;1.50;1.00;;;17.70;98.20;;;;;;5017633;28;20463;-78
2021/07/19 05:07:24;;;;;;;1.50;0.93;;;17.80;98.20;;;;;;5012835;28;20484;-79
2021/07/19 05:12:43;;;;;;;1.53;0.90;;;18.20;98.20;;;;;;5002990;28;20491;-78
2021/07/19 05:15:11;;;;;;;1.50;0.90;;;18.40;98.20;;;;;;5003564;28;20717;-78
2021/07/19 05:20:40;;;;;;;1.53;0.90;;;18.80;98.20;;;;;;4997788;28;20466;-79
2021/07/19 05:23:07;;;;;;;1.53;1.00;;;19.00;98.20;;;;;;4996438;28;20480;-78
2021/07/19 05:25:34;;;;;;;1.57;0.90;;;19.10;98.20;;;;;;5013936;28;20481;-80
2021/07/19 05:28:10;;;;;;;1.53;0.90;;;19.20;98.20;;;;;;5010195;28;20898;-80
2021/07/19 05:30:43;;;;;;;1.60;1.00;;;19.30;98.20;;;;;;5005394;28;20530;-80
2021/07/19 05:33:11;;;;;;;1.50;0.90;;;19.40;98.20;;;;;;5007331;28;20474;-79
2021/07/19 05:35:39;;;;;;;1.50;0.90;;;19.60;98.20;;;;;;5002035;28;20538;-78
2021/07/19 05:38:07;;;;;;;1.50;0.90;;;19.70;98.20;;;;;;4999728;28;20508;-79
2021/07/19 05:40:37;;;;;;;1.60;1.20;;;19.70;98.20;;;;;;5002330;28;20469;-80
2021/07/19 05:43:06;;;;;;;1.53;0.90;;;19.80;98.20;;;;;;5007231;28;20476;-80
2021/07/19 05:45:38;;;;;;;1.53;0.90;;;19.90;98.20;;;;;;4995763;28;20478;-79
2021/07/19 05:48:07;;;;;;;1.60;1.00;;;19.90;98.20;;;;;;5014023;28;20525;-79
2021/07/19 05:50:37;;;;;;;1.50;0.90;;;20.00;98.20;;;;;;4999079;28;20812;-78
2021/07/19 05:53:07;;;;;;;1.53;0.97;;;20.10;98.20;;;;;;5007945;28;20484;-79
2021/07/19 05:55:37;;;;;;;1.50;0.90;;;20.20;98.20;;;;;;4990689;28;20547;-80
2021/07/19 05:58:06;;;;;;;1.57;1.00;;;20.30;98.00;;;;;;5006847;28;20484;-79
2021/07/19 06:00:36;;;;;;;1.53;0.97;;;20.40;98.00;;;;;;5001181;28;20493;-81
2021/07/19 06:03:12;;;;;;;1.53;0.93;;;20.50;97.60;;;;;;5011303;28;21226;-80
2021/07/19 06:05:42;;;;;;;1.50;0.90;;;20.50;97.10;;;;;;4999237;28;20474;-79
2021/07/19 06:08:11;;;;;;;1.53;0.90;;;20.30;97.30;;;;;;5013517;28;20481;-80
2021/07/19 06:10:42;;;;;;;1.53;0.90;;;20.20;97.70;;;;;;4999004;28;20467;-80
2021/07/19 06:13:14;;;;;;;1.50;0.90;;;20.10;98.20;;;;;;4998144;28;20481;-80
2021/07/19 06:15:45;;;;;;;1.53;0.90;;;20.10;98.20;;;;;;5002250;28;20496;-80
2021/07/19 06:18:12;;;;;;;1.53;0.97;;;20.00;98.20;;;;;;4998554;28;20522;-80
2021/07/19 06:20:39;;;;;;;1.50;0.90;;;19.90;98.20;;;;;;5000145;28;20482;-79
2021/07/19 06:23:06;;;;;;;1.50;0.90;;;19.80;98.20;;;;;;5001227;28;20481;-80
2021/07/19 06:25:41;;;;;;;1.50;1.00;;;19.80;98.20;;;;;;5003369;28;20488;-79
2021/07/19 06:28:09;;;;;;;2.27;2.00;;;19.80;98.20;;;;;;5001196;28;20476;-80
2021/07/19 06:30:43;;;;;;;1.50;0.93;;;19.80;98.20;;;;;;5002285;28;20458;-80
2021/07/19 06:33:10;;;;;;;1.57;0.90;;;19.80;98.20;;;;;;4998322;28;20476;-79
2021/07/19 06:35:39;;;;;;;1.53;0.90;;;19.70;98.20;;;;;;5001564;28;20876;-80
2021/07/19 06:38:08;;;;;;;1.50;0.90;;;19.80;98.20;;;;;;4988981;28;20491;-81
2021/07/19 06:40:35;;;;;;;1.50;0.90;;;19.90;98.20;;;;;;4995607;28;20494;-80
2021/07/19 06:43:03;;;;;;;1.50;0.90;;;20.00;98.20;;;;;;5004582;28;20475;-81
2021/07/19 06:45:33;;;;;;;1.53;0.90;;;20.10;98.20;;;;;;5000486;28;20489;-80
2021/07/19 06:48:06;;;;;;;1.50;0.90;;;20.10;98.20;;;;;;5010075;28;20878;-80
2021/07/19 06:50:32;;;;;;;1.50;0.90;;;20.20;98.20;;;;;;5003421;28;20496;-81
2021/07/19 06:53:00;;;;;;;1.50;0.90;;;20.40;97.50;;;;;;5010866;28;20486;-81
2021/07/19 06:55:27;;;;;;;1.50;0.90;;;20.40;97.50;;;;;;5001575;28;20489;-82
2021/07/19 06:57:54;;;;;;;1.53;1.00;;;20.30;97.70;;;;;;5011742;28;20535;-80
2021/07/19 07:00:23;;;;;;;1.50;0.90;;;20.40;97.80;;;;;;5004601;28;20836;-79
2021/07/19 07:02:49;;;;;;;1.53;0.90;;;20.40;97.80;;;;;;5006209;28;20472;-80
2021/07/19 07:05:18;;;;;;;1.57;0.97;;;20.60;98.00;;;;;;5001730;28;20469;-81
2021/07/19 07:07:49;;;;;;;1.50;0.90;;;20.80;96.80;;;;;;4993812;28;20480;-80
2021/07/19 07:10:16;;;;;;;1.50;0.90;;;21.00;95.80;;;;;;4994400;28;20479;-80
2021/07/19 07:12:46;;;;;;;1.57;0.90;;;21.20;94.50;;;;;;5009085;28;20777;-82
2021/07/19 07:15:14;;;;;;;1.50;0.90;;;21.40;94.50;;;;;;4998639;28;20690;-79
2021/07/19 07:17:41;;;;;;;1.53;0.90;;;21.50;92.50;;;;;;4986923;28;20784;-79
2021/07/19 07:20:10;;;;;;;1.50;0.90;;;21.50;91.30;;;;;;4995626;28;20977;-81
2021/07/19 07:22:39;;;;;;;1.53;0.90;;;21.40;91.90;;;;;;4988470;28;20480;-82
2021/07/19 07:25:07;;;;;;;1.50;0.90;;;21.50;91.80;;;;;;4995762;28;20476;-83
2021/07/19 07:27:34;;;;;;;1.50;0.90;;;21.50;91.60;;;;;;4992145;28;20492;-83
2021/07/19 07:30:06;;;;;;;1.53;0.90;;;21.50;91.60;;;;;;5009254;28;20464;-81
2021/07/19 07:32:38;;;;;;;1.53;0.90;;;21.40;90.80;;;;;;4997112;28;20469;-80
2021/07/19 07:35:16;;;;;;;1.53;0.90;;;21.40;91.20;;;;;;5010079;28;20463;-81
2021/07/19 07:37:45;;;;;;;1.50;0.90;;;21.40;91.70;;;;;;5004637;28;20499;-80
2021/07/19 07:40:17;;;;;;;1.50;0.90;;;21.40;91.70;;;;;;5004185;28;20568;-81
2021/07/19 07:42:46;;;;;;;1.53;0.90;;;21.40;89.50;;;;;;4994837;28;20846;-83
2021/07/19 07:45:13;;;;;;;1.57;0.97;;;21.40;89.10;;;;;;5006508;28;20464;-82
2021/07/19 07:47:42;;;;;;;1.50;0.90;;;21.40;88.90;;;;;;4996318;28;20475;-80
2021/07/19 07:50:12;;;;;;;1.50;0.80;;;21.40;89.90;;;;;;5005519;28;20515;-82
2021/07/19 07:52:40;;;;;;;1.53;0.93;;;21.30;89.80;;;;;;5000382;28;20500;-80
2021/07/19 07:55:14;;;;;;;1.50;0.90;;;21.30;89.60;;;;;;4998534;28;20968;-82
2021/07/19 07:57:41;;;;;;;1.50;0.90;;;21.30;90.10;;;;;;4996305;28;20554;-81
2021/07/19 08:09:24;;;;;;;1.50;0.90;;;21.30;92.10;;;;;;5556731;23;20500;-82
2021/07/19 08:11:53;;;;;;;1.57;0.90;;;21.20;92.20;;;;;;4994069;28;20484;-80
2021/07/19 08:14:20;;;;;;;1.50;0.90;;;21.30;92.70;;;;;;4999916;28;20479;-82
2021/07/19 08:19:32;;;;;;;1.50;0.90;;;21.30;92.80;;;;;;4996002;28;20475;-83
2021/07/19 08:22:11;;;;;;;1.50;0.90;;;21.30;91.20;;;;;;4993545;28;20479;-81
2021/07/19 08:24:38;;;;;;;1.50;0.90;;;21.30;91.80;;;;;;5000407;28;20476;-82
2021/07/19 08:27:15;;;;;;;1.50;0.90;;;21.20;92.40;;;;;;4997835;28;20488;-81
2021/07/19 08:29:42;;;;;;;1.50;0.90;;;21.20;92.30;;;;;;5001481;28;20468;-81
2021/07/19 08:32:12;;;;;;;1.53;0.90;;;21.20;91.70;;;;;;4993522;28;21008;-81
2021/07/19 08:34:40;;;;;;;1.50;0.90;;;21.10;91.80;;;;;;4996224;28;20461;-84
2021/07/19 08:37:07;;;;;;;1.50;0.90;;;21.10;92.40;;;;;;4991024;28;20492;-81
2021/07/19 08:39:34;;;;;;;1.50;0.90;;;21.10;92.60;;;;;;4991626;28;20480;-82
2021/07/19 08:42:04;;;;;;;1.50;0.90;;;21.10;91.40;;;;;;4988893;28;20546;-82
2021/07/19 08:44:32;;;;;;;1.50;0.90;;;21.10;91.40;;;;;;4997360;28;20489;-80
2021/07/19 08:46:59;;;;;;;1.50;0.90;;;21.20;91.40;;;;;;4994720;28;20542;-80
2021/07/19 08:49:26;;;;;;;1.53;0.90;;;21.30;92.00;;;;;;4999630;28;20492;-81
2021/07/19 08:51:54;;;;;;;1.50;0.90;;;21.40;91.80;;;;;;4991130;28;20571;-78
2021/07/19 08:54:21;;;;;;;1.50;0.90;;;21.50;91.60;;;;;;4994702;28;20516;-81
2021/07/19 08:56:48;;;;;;;1.50;0.90;;;21.50;90.30;;;;;;4990010;28;20488;-79
2021/07/19 08:59:19;;;;;;;1.50;0.90;;;21.50;89.80;;;;;;4994599;28;20465;-81
2021/07/19 09:01:48;;;;;;;1.50;0.90;;;21.50;89.80;;;;;;4989497;28;20777;-80
2021/07/19 09:04:22;;;;;;;1.50;0.90;;;21.60;90.20;;;;;;4999895;28;20750;-78
2021/07/19 09:06:49;;;;;;;1.53;0.90;;;21.60;90.10;;;;;;4984015;28;20489;-78
2021/07/19 09:09:26;;;;;;;1.50;0.90;;;21.70;89.80;;;;;;4992085;28;20479;-83
2021/07/19 09:11:53;;;;;;;1.57;1.00;;;21.60;89.40;;;;;;4989130;28;20481;-80
2021/07/19 09:14:20;;;;;;;1.60;1.10;;;21.70;89.70;;;;;;4997231;28;20466;-83
2021/07/19 09:16:50;;;;;;;1.50;0.97;;;21.70;89.60;;;;;;4983124;28;20561;-79
2021/07/19 09:19:19;;;;;;;1.87;1.60;;;21.60;89.80;;;;;;4994347;28;20473;-80
2021/07/19 09:21:48;;;;;;;1.60;1.30;;;21.60;90.00;;;;;;4991127;28;20476;-79
2021/07/19 09:24:17;;;;;;;1.50;0.90;;;21.60;89.90;;;;;;4996153;28;20556;-78
2021/07/19 09:26:46;;;;;;;1.50;0.90;;;21.60;89.40;;;;;;4982252;28;20484;-81
2021/07/19 09:29:15;;;;;;;1.50;0.93;;;21.50;89.30;;;;;;4990890;28;20454;-83
2021/07/19 09:31:44;;;;;;;2.33;2.13;;;21.60;89.80;;;;;;4992609;28;20484;-79
2021/07/19 09:34:17;;;;;;;1.50;0.90;;;21.70;89.20;;;;;;5000253;28;20838;-81
2021/07/19 09:36:55;;;;;;;1.50;0.90;;;21.70;89.10;;;;;;4973211;28;21134;-81
2021/07/19 09:39:22;;;;;;;1.70;1.10;;;21.60;88.80;;;;;;4990873;28;20471;-81
2021/07/19 09:41:49;;;;;;;1.50;0.90;;;21.60;89.50;;;;;;4978657;28;20864;-81
2021/07/19 09:44:20;;;;;;;1.60;1.10;;;21.50;89.10;;;;;;4992801;28;20529;-81
2021/07/19 09:46:47;;;;;;;1.50;0.90;;;21.60;88.90;;;;;;4992533;28;20488;-83
2021/07/19 09:49:17;;;;;;;1.50;0.90;;;21.60;87.90;;;;;;5001533;28;20476;-80
2021/07/19 09:51:44;;;;;;;1.50;0.90;;;21.60;88.80;;;;;;4981972;28;20504;-79
2021/07/19 09:54:12;;;;;;;1.50;0.90;;;21.70;88.60;;;;;;4995461;28;20489;-82
2021/07/19 09:56:40;;;;;;;1.50;0.90;;;21.80;87.80;;;;;;4986206;28;20578;-82
2021/07/19 09:59:10;;;;;;;1.50;0.90;;;21.90;87.90;;;;;;5002308;28;20469;-83
2021/07/19 10:01:43;;;;;;;1.50;0.90;;;22.00;87.70;;;;;;4983957;28;20852;-80
2021/07/19 10:04:11;;;;;;;1.50;0.90;;;22.00;87.80;;;;;;4997875;28;20710;-78
2021/07/19 10:06:41;;;;;;;1.50;0.90;;;22.00;87.80;;;;;;4979773;28;20649;-83
2021/07/19 10:09:09;;;;;;;1.50;0.90;;;22.00;87.70;;;;;;4999753;28;20487;-81
2021/07/19 10:11:38;;;;;;;1.50;0.90;;;22.00;88.70;;;;;;4985373;28;20674;-79
2021/07/19 10:14:06;;;;;;;1.50;0.90;;;22.00;88.00;;;;;;4992601;28;20488;-81
2021/07/19 10:16:34;;;;;;;1.50;1.00;;;22.10;88.50;;;;;;4987110;28;20519;-81
2021/07/19 10:19:03;;;;;;;1.50;0.90;;;22.10;89.00;;;;;;4999042;28;20464;-80
2021/07/19 10:21:32;;;;;;;1.50;0.90;;;22.20;88.30;;;;;;4983722;28;20484;-79
2021/07/19 10:24:03;;;;;;;1.50;1.00;;;22.30;88.30;;;;;;4999356;28;20489;-79
2021/07/19 10:26:31;;;;;;;1.53;0.90;;;22.30;87.50;;;;;;4984220;28;21006;-79
2021/07/19 10:29:01;;;;;;;1.60;1.10;;;22.30;88.20;;;;;;4998458;28;20556;-81
2021/07/19 10:31:30;;;;;;;1.70;1.40;;;22.40;88.00;;;;;;4979223;28;20484;-80
2021/07/19 10:33:58;;;;;;;1.50;0.90;;;22.40;87.60;;;;;;4994712;28;22335;-79
2021/07/19 10:36:31;;;;;;;1.50;0.90;;;22.40;87.80;;;;;;4974453;28;20518;-83
2021/07/19 10:39:09;;;;;;;1.50;0.90;;;22.40;88.70;;;;;;4984746;28;20461;-81
2021/07/19 10:41:36;;;;;;;1.50;0.90;;;22.40;87.80;;;;;;4979633;28;20554;-80
2021/07/19 10:44:05;;;;;;;1.50;0.90;;;22.50;87.20;;;;;;4994965;28;20949;-82
2021/07/19 10:46:35;;;;;;;1.60;1.00;;;22.50;87.20;;;;;;4982074;28;20557;-79
2021/07/19 10:49:11;;;;;;;1.50;0.83;;;22.50;87.80;;;;;;4997145;28;20465;-80
2021/07/19 10:51:43;;;;;;;1.50;0.90;;;22.50;87.50;;;;;;4983265;28;20482;-82
2021/07/19 10:54:20;;;;;;;1.50;0.80;;;22.60;87.90;;;;;;4995371;28;20469;-78
2021/07/19 10:56:51;;;;;;;1.50;0.90;;;22.60;86.40;;;;;;4984284;28;21002;-79
2021/07/19 10:59:28;;;;;;;1.50;0.90;;;22.60;86.80;;;;;;4984849;28;20462;-79
2021/07/19 11:01:56;;;;;;;1.50;0.90;;;22.50;86.90;;;;;;4992868;28;20553;-81
2021/07/19 11:04:24;;;;;;;1.50;0.90;;;22.50;86.70;;;;;;5000105;28;20489;-81
2021/07/19 11:06:57;;;;;;;1.50;0.90;;;22.40;86.60;;;;;;4980672;28;20588;-81
2021/07/19 11:09:42;;;;;;;1.50;0.90;;;22.40;86.60;;;;;;4989469;28;20476;-78
2021/07/19 11:12:16;;;;;;;1.50;0.90;;;22.30;87.50;;;;;;4987023;28;20508;-77
2021/07/19 11:14:49;;;;;;;1.50;0.90;;;22.30;87.20;;;;;;4985781;28;20472;-80
2021/07/19 11:17:18;;;;;;;1.50;0.90;;;22.30;87.20;;;;;;4989375;28;20487;-80
2021/07/19 11:19:48;;;;;;;1.50;0.90;;;22.30;87.90;;;;;;4986976;28;20977;-79
2021/07/19 11:22:22;;;;;;;1.50;1.00;;;22.40;87.00;;;;;;4993250;28;20504;-79
2021/07/19 11:24:51;;;;;;;1.90;1.40;;;22.40;87.30;;;;;;4989064;28;20912;-78
2021/07/19 11:27:33;;;;;;;1.50;0.90;;;22.40;86.90;;;;;;4986785;28;20580;-80
2021/07/19 11:42:05;;;;;;;1.60;1.03;;;23.00;84.70;;;;;;5253466;23;20475;-79
2021/07/19 11:44:32;;;;;;;1.50;0.90;;;23.20;85.00;;;;;;5012661;28;20549;-80
2021/07/19 11:47:03;;;;;;;1.50;0.90;;;23.30;84.70;;;;;;5002424;28;21309;-80
2021/07/19 11:49:31;;;;;;;1.53;0.90;;;23.40;84.70;;;;;;5016653;28;20499;-80
2021/07/19 11:51:59;;;;;;;1.53;0.90;;;23.50;84.20;;;;;;5002630;28;20599;-81
2021/07/19 11:54:33;;;;;;;1.60;1.10;;;23.60;82.90;;;;;;5009394;28;20466;-80
2021/07/19 11:57:01;;;;;;;1.50;0.90;;;23.60;83.50;;;;;;5004359;28;20491;-80
2021/07/19 11:59:29;;;;;;;1.53;0.90;;;23.80;83.10;;;;;;5008826;28;20460;-79
2021/07/19 12:01:57;;;;;;;1.53;0.90;;;23.90;82.30;;;;;;5002980;28;20508;-81
2021/07/19 12:04:35;;;;;;;1.57;1.00;;;24.20;82.70;;;;;;5010163;28;20484;-81
2021/07/19 12:07:02;;;;;;;1.53;0.90;;;24.40;82.50;;;;;;4996870;28;20486;-81
2021/07/19 12:09:30;;;;;;;1.53;0.90;;;24.40;82.00;;;;;;5016388;28;20598;-81
2021/07/19 12:11:57;;;;;;;1.70;1.20;;;24.60;81.00;;;;;;5009385;28;21550;-81
2021/07/19 12:14:25;;;;;;;2.07;1.87;;;24.60;81.70;;;;;;5006402;28;20458;-81
2021/07/19 12:16:52;;;;;;;1.50;0.90;;;24.70;82.20;;;;;;5001923;28;20494;-82
2021/07/19 12:19:23;;;;;;;1.53;0.90;;;24.80;81.40;;;;;;5015371;28;20466;-81
2021/07/19 12:22:00;;;;;;;1.50;0.80;;;24.80;80.50;;;;;;4999274;28;20495;-80
2021/07/19 12:24:30;;;;;;;1.50;0.80;;;24.80;81.50;;;;;;5010096;28;21045;-81
2021/07/19 12:27:02;;;;;;;1.50;0.90;;;24.80;81.10;;;;;;5001520;28;20637;-81
2021/07/19 12:29:33;;;;;;;1.57;0.90;;;24.80;80.20;;;;;;5006011;28;20495;-80
2021/07/19 12:32:02;;;;;;;1.60;1.30;;;24.80;79.10;;;;;;5008328;28;21027;-82
2021/07/19 12:34:32;;;;;;;2.23;1.97;;;24.50;80.10;;;;;;5010464;28;21041;-80
2021/07/19 12:37:03;;;;;;;1.50;0.90;;;24.40;80.30;;;;;;5017793;28;20521;-80
2021/07/19 12:39:32;;;;;;;1.53;0.90;;;24.20;80.80;;;;;;5023074;28;20486;-82
2021/07/19 12:42:02;;;;;;;1.60;1.10;;;24.00;81.40;;;;;;5007924;28;20482;-81
2021/07/19 12:44:32;;;;;;;2.17;1.13;;;23.90;82.60;;;;;;5017633;28;20487;-79
2021/07/19 12:47:00;;;;;;;1.50;0.90;;;23.90;82.30;;;;;;5000383;28;20483;-79
2021/07/19 12:49:29;;;;;;;1.50;0.90;;;24.00;83.10;;;;;;5012012;28;21031;-80
2021/07/19 12:52:03;;;;;;;1.50;0.83;;;24.00;82.00;;;;;;4995595;28;20492;-82
2021/07/19 12:54:30;;;;;;;1.50;0.90;;;24.10;82.30;;;;;;5010117;28;20530;-81
2021/07/19 12:56:57;;;;;;;1.50;0.90;;;24.10;81.40;;;;;;5007153;28;20483;-81
2021/07/19 12:59:24;;;;;;;1.50;0.90;;;24.10;81.90;;;;;;5012829;28;20503;-82
2021/07/19 13:01:58;;;;;;;1.50;0.90;;;24.10;81.10;;;;;;4998100;28;20510;-80
2021/07/19 13:04:26;;;;;;;1.53;0.90;;;24.20;82.40;;;;;;5011887;28;20506;-81
2021/07/19 13:06:53;;;;;;;1.50;0.90;;;24.20;81.60;;;;;;5009662;28;20521;-79
2021/07/19 13:09:23;;;;;;;1.50;0.90;;;24.30;81.60;;;;;;5013730;28;20587;-82
2021/07/19 13:11:58;;;;;;;1.50;0.90;;;24.40;81.10;;;;;;5003438;28;20484;-79
2021/07/19 13:14:25;;;;;;;1.50;0.83;;;24.40;80.00;;;;;;5003044;28;20479;-80
2021/07/19 13:17:01;;;;;;;1.50;0.90;;;24.40;81.30;;;;;;5003624;28;20502;-82
2021/07/19 13:19:33;;;;;;;1.50;0.83;;;24.50;81.20;;;;;;5011268;28;20468;-81
2021/07/19 13:22:04;;;;;;;1.50;0.80;;;24.50;80.70;;;;;;5003858;28;20569;-80
2021/07/19 13:24:40;;;;;;;2.43;1.20;;;24.60;81.10;;;;;;5013104;28;20501;-80
2021/07/19 13:27:10;;;;;;;1.53;0.90;;;24.80;80.40;;;;;;5012954;28;20597;-83
2021/07/19 13:29:40;;;;;;;1.50;0.90;;;25.00;80.10;;;;;;5019550;28;20464;-81